Portada
METAR-TAF:

METAR-TAF

Aeroports :

Base aèria

Shizuhama, Japó

latitud: 34-49N, longitud: 138-18E, altitud: 7 m

Observació

L'informe es va fer fa 1 hora i 31 minuts, a les 00:45 UTC
Vent 4 kt amb direcció variable
Temperatura 32°C
Humitat 56%
Pressió 999 hPa
Visibilitat 10 km o més
Escasses núvols a una alçada de 3000 ft
Cel ennuvolat a una alçada de 10000 ft

METAR: RJNY 160045Z VRB04KT 9999 FEW030 BKN100 32/22 Q0999 RMK 1CU030 5AC100 A2951

Hora: 11:16 (02:16 UTC)


TAF: manca

Observacions i pronòstics meteorològics de més de 4000 aeroports (METAR i TAF).

Les estacions disponibles són els punts grocs i vermells al mapa.

Posi el ratolí al punt desitjat per veure el nom de l'estació.

Feu clic per veure les observacions i els pronòstics meteorològics.

Per canviar el mapa: feu clic els botons verds amb una creu de color negre per apropar; al botó verd amb un guió per allunyar la imatge; o en les fletxes verdes per a mapes adjacents.


METAR-TAF: